sensor_id;sensor_type;location;lat;lon;timestamp;temperature;humidity
39103;DHT22;24847;48.218;16.414;2024-03-07T00:00:59;6.40;77.30
39103;DHT22;24847;48.218;16.414;2024-03-07T00:06:05;6.40;77.60
39103;DHT22;24847;48.218;16.414;2024-03-07T00:11:09;6.30;77.80
39103;DHT22;24847;48.218;16.414;2024-03-07T00:16:11;6.50;78.00
39103;DHT22;24847;48.218;16.414;2024-03-07T00:21:15;6.40;79.10
39103;DHT22;24847;48.218;16.414;2024-03-07T00:26:17;6.40;79.60
39103;DHT22;24847;48.218;16.414;2024-03-07T00:31:22;6.50;79.90
39103;DHT22;24847;48.218;16.414;2024-03-07T00:36:25;6.30;80.00
39103;DHT22;24847;48.218;16.414;2024-03-07T00:41:28;6.30;80.00
39103;DHT22;24847;48.218;16.414;2024-03-07T00:46:31;6.20;79.40
39103;DHT22;24847;48.218;16.414;2024-03-07T00:51:35;6.20;79.80
39103;DHT22;24847;48.218;16.414;2024-03-07T00:56:37;6.10;79.90
39103;DHT22;24847;48.218;16.414;2024-03-07T01:01:39;6.10;80.10
39103;DHT22;24847;48.218;16.414;2024-03-07T01:06:43;6.00;80.20
39103;DHT22;24847;48.218;16.414;2024-03-07T01:11:46;6.30;79.30
39103;DHT22;24847;48.218;16.414;2024-03-07T01:16:48;6.30;78.40
39103;DHT22;24847;48.218;16.414;2024-03-07T01:21:52;6.60;77.70
39103;DHT22;24847;48.218;16.414;2024-03-07T01:26:54;6.40;77.60
39103;DHT22;24847;48.218;16.414;2024-03-07T01:31:56;6.40;77.70
39103;DHT22;24847;48.218;16.414;2024-03-07T01:36:59;6.40;77.80
39103;DHT22;24847;48.218;16.414;2024-03-07T01:42:02;6.20;78.20
39103;DHT22;24847;48.218;16.414;2024-03-07T01:47:05;6.40;77.70
39103;DHT22;24847;48.218;16.414;2024-03-07T01:52:09;6.30;78.00
39103;DHT22;24847;48.218;16.414;2024-03-07T01:57:12;6.50;77.20
39103;DHT22;24847;48.218;16.414;2024-03-07T02:02:14;6.40;77.90
39103;DHT22;24847;48.218;16.414;2024-03-07T02:07:18;6.60;76.50
39103;DHT22;24847;48.218;16.414;2024-03-07T02:12:20;6.50;77.10
39103;DHT22;24847;48.218;16.414;2024-03-07T02:17:22;6.40;77.60
39103;DHT22;24847;48.218;16.414;2024-03-07T02:22:26;6.20;78.90
39103;DHT22;24847;48.218;16.414;2024-03-07T02:27:28;6.20;78.70
39103;DHT22;24847;48.218;16.414;2024-03-07T02:32:30;6.50;77.70
39103;DHT22;24847;48.218;16.414;2024-03-07T02:37:34;6.40;78.00
39103;DHT22;24847;48.218;16.414;2024-03-07T02:42:37;6.10;78.90
39103;DHT22;24847;48.218;16.414;2024-03-07T02:47:39;6.10;79.10
39103;DHT22;24847;48.218;16.414;2024-03-07T02:52:43;6.00;79.70
39103;DHT22;24847;48.218;16.414;2024-03-07T02:57:45;5.90;78.80
39103;DHT22;24847;48.218;16.414;2024-03-07T03:02:47;6.10;78.80
39103;DHT22;24847;48.218;16.414;2024-03-07T03:07:51;6.10;78.60
39103;DHT22;24847;48.218;16.414;2024-03-07T03:12:54;6.00;78.50
39103;DHT22;24847;48.218;16.414;2024-03-07T03:17:58;5.90;79.10
39103;DHT22;24847;48.218;16.414;2024-03-07T03:23:03;5.80;78.70
39103;DHT22;24847;48.218;16.414;2024-03-07T03:28:12;6.10;78.30
39103;DHT22;24847;48.218;16.414;2024-03-07T03:33:48;5.90;78.90
39103;DHT22;24847;48.218;16.414;2024-03-07T03:39:02;6.30;77.60
39103;DHT22;24847;48.218;16.414;2024-03-07T03:44:04;6.10;77.70
39103;DHT22;24847;48.218;16.414;2024-03-07T03:49:07;6.10;77.40
39103;DHT22;24847;48.218;16.414;2024-03-07T03:54:10;6.10;77.80
39103;DHT22;24847;48.218;16.414;2024-03-07T03:59:12;5.80;78.20
39103;DHT22;24847;48.218;16.414;2024-03-07T04:04:14;6.20;76.90
39103;DHT22;24847;48.218;16.414;2024-03-07T04:09:18;6.20;76.30
39103;DHT22;24847;48.218;16.414;2024-03-07T04:14:20;6.20;76.50
39103;DHT22;24847;48.218;16.414;2024-03-07T04:19:22;5.90;78.20
39103;DHT22;24847;48.218;16.414;2024-03-07T04:24:27;6.00;77.60
39103;DHT22;24847;48.218;16.414;2024-03-07T04:29:30;6.10;77.20
39103;DHT22;24847;48.218;16.414;2024-03-07T04:34:32;6.30;76.50
39103;DHT22;24847;48.218;16.414;2024-03-07T04:39:36;6.10;76.70
39103;DHT22;24847;48.218;16.414;2024-03-07T04:44:38;6.00;77.10
39103;DHT22;24847;48.218;16.414;2024-03-07T04:49:40;6.30;76.60
39103;DHT22;24847;48.218;16.414;2024-03-07T04:54:45;6.10;77.00
39103;DHT22;24847;48.218;16.414;2024-03-07T04:59:47;6.00;77.50
39103;DHT22;24847;48.218;16.414;2024-03-07T05:04:50;6.10;77.00
39103;DHT22;24847;48.218;16.414;2024-03-07T05:09:53;5.90;77.90
39103;DHT22;24847;48.218;16.414;2024-03-07T05:14:56;5.90;77.40
39103;DHT22;24847;48.218;16.414;2024-03-07T05:19:58;5.70;77.50
39103;DHT22;24847;48.218;16.414;2024-03-07T05:25:02;5.90;77.30
39103;DHT22;24847;48.218;16.414;2024-03-07T05:30:07;6.00;76.90
39103;DHT22;24847;48.218;16.414;2024-03-07T05:35:12;6.00;76.50
39103;DHT22;24847;48.218;16.414;2024-03-07T05:40:15;6.10;76.30
39103;DHT22;24847;48.218;16.414;2024-03-07T05:45:18;5.90;77.20
39103;DHT22;24847;48.218;16.414;2024-03-07T05:50:20;5.90;76.40
39103;DHT22;24847;48.218;16.414;2024-03-07T05:55:23;6.00;77.00
39103;DHT22;24847;48.218;16.414;2024-03-07T06:00:26;6.10;76.20
39103;DHT22;24847;48.218;16.414;2024-03-07T06:05:28;6.00;76.00
39103;DHT22;24847;48.218;16.414;2024-03-07T06:10:32;5.70;76.40
39103;DHT22;24847;48.218;16.414;2024-03-07T06:15:34;5.80;76.50
39103;DHT22;24847;48.218;16.414;2024-03-07T06:20:37;5.60;76.30
39103;DHT22;24847;48.218;16.414;2024-03-07T06:25:40;5.70;76.00
39103;DHT22;24847;48.218;16.414;2024-03-07T06:30:48;5.80;75.20
39103;DHT22;24847;48.218;16.414;2024-03-07T06:35:51;5.90;75.20
39103;DHT22;24847;48.218;16.414;2024-03-07T06:40:55;5.90;74.70
39103;DHT22;24847;48.218;16.414;2024-03-07T06:45:57;5.80;74.10
39103;DHT22;24847;48.218;16.414;2024-03-07T06:50:59;6.00;74.30
39103;DHT22;24847;48.218;16.414;2024-03-07T06:56:03;6.00;74.60
39103;DHT22;24847;48.218;16.414;2024-03-07T07:01:07;6.00;73.40
39103;DHT22;24847;48.218;16.414;2024-03-07T07:06:11;5.80;74.80
39103;DHT22;24847;48.218;16.414;2024-03-07T07:11:17;5.80;74.70
39103;DHT22;24847;48.218;16.414;2024-03-07T07:16:20;6.00;75.20
39103;DHT22;24847;48.218;16.414;2024-03-07T07:21:22;5.90;75.10
39103;DHT22;24847;48.218;16.414;2024-03-07T07:26:26;5.90;74.90
39103;DHT22;24847;48.218;16.414;2024-03-07T07:31:28;6.00;75.00
39103;DHT22;24847;48.218;16.414;2024-03-07T07:36:30;5.90;74.70
39103;DHT22;24847;48.218;16.414;2024-03-07T07:41:34;5.80;75.50
39103;DHT22;24847;48.218;16.414;2024-03-07T07:46:36;5.80;75.50
39103;DHT22;24847;48.218;16.414;2024-03-07T07:51:38;6.10;74.50
39103;DHT22;24847;48.218;16.414;2024-03-07T07:56:42;5.90;74.00
39103;DHT22;24847;48.218;16.414;2024-03-07T08:01:44;5.80;74.90
39103;DHT22;24847;48.218;16.414;2024-03-07T08:06:47;6.00;74.70
39103;DHT22;24847;48.218;16.414;2024-03-07T08:11:51;6.50;72.60
39103;DHT22;24847;48.218;16.414;2024-03-07T08:16:53;6.50;69.70
39103;DHT22;24847;48.218;16.414;2024-03-07T08:21:56;6.40;68.40
39103;DHT22;24847;48.218;16.414;2024-03-07T08:27:02;6.10;68.20
39103;DHT22;24847;48.218;16.414;2024-03-07T08:32:05;6.40;67.80
39103;DHT22;24847;48.218;16.414;2024-03-07T08:37:08;6.70;67.10
39103;DHT22;24847;48.218;16.414;2024-03-07T08:42:11;6.50;68.30
39103;DHT22;24847;48.218;16.414;2024-03-07T08:47:14;6.40;67.30
39103;DHT22;24847;48.218;16.414;2024-03-07T08:52:16;6.50;67.90
39103;DHT22;24847;48.218;16.414;2024-03-07T08:57:20;6.30;67.90
39103;DHT22;24847;48.218;16.414;2024-03-07T09:02:23;6.90;67.00
39103;DHT22;24847;48.218;16.414;2024-03-07T09:07:26;6.60;66.90
39103;DHT22;24847;48.218;16.414;2024-03-07T09:12:31;6.80;66.90
39103;DHT22;24847;48.218;16.414;2024-03-07T09:17:33;6.90;65.90
39103;DHT22;24847;48.218;16.414;2024-03-07T09:22:37;7.50;62.80
39103;DHT22;24847;48.218;16.414;2024-03-07T09:27:40;8.30;60.20
39103;DHT22;24847;48.218;16.414;2024-03-07T09:32:43;9.10;58.90
39103;DHT22;24847;48.218;16.414;2024-03-07T09:37:46;8.10;59.90
39103;DHT22;24847;48.218;16.414;2024-03-07T09:42:49;7.50;62.90
39103;DHT22;24847;48.218;16.414;2024-03-07T09:47:53;7.10;64.40
39103;DHT22;24847;48.218;16.414;2024-03-07T09:52:56;7.10;65.50
39103;DHT22;24847;48.218;16.414;2024-03-07T09:58:02;7.00;65.50
39103;DHT22;24847;48.218;16.414;2024-03-07T10:03:09;6.40;66.50
39103;DHT22;24847;48.218;16.414;2024-03-07T10:08:15;6.60;66.60
39103;DHT22;24847;48.218;16.414;2024-03-07T10:13:19;6.90;65.90
39103;DHT22;24847;48.218;16.414;2024-03-07T10:18:23;7.30;64.60
39103;DHT22;24847;48.218;16.414;2024-03-07T10:23:26;7.10;65.60
39103;DHT22;24847;48.218;16.414;2024-03-07T10:28:29;7.30;65.20
39103;DHT22;24847;48.218;16.414;2024-03-07T10:33:32;7.30;65.20
39103;DHT22;24847;48.218;16.414;2024-03-07T10:38:35;7.00;67.10
39103;DHT22;24847;48.218;16.414;2024-03-07T10:43:41;6.90;67.10
39103;DHT22;24847;48.218;16.414;2024-03-07T10:48:50;7.90;64.90
39103;DHT22;24847;48.218;16.414;2024-03-07T10:54:08;7.60;64.50
39103;DHT22;24847;48.218;16.414;2024-03-07T10:59:19;7.30;67.50
39103;DHT22;24847;48.218;16.414;2024-03-07T11:04:25;6.60;70.20
39103;DHT22;24847;48.218;16.414;2024-03-07T11:09:28;6.70;70.70
39103;DHT22;24847;48.218;16.414;2024-03-07T11:14:36;6.70;70.00
39103;DHT22;24847;48.218;16.414;2024-03-07T11:19:39;6.50;71.00
39103;DHT22;24847;48.218;16.414;2024-03-07T11:24:42;6.40;71.20
39103;DHT22;24847;48.218;16.414;2024-03-07T11:29:49;6.30;71.50
39103;DHT22;24847;48.218;16.414;2024-03-07T11:34:54;6.20;71.90
39103;DHT22;24847;48.218;16.414;2024-03-07T11:39:56;6.30;71.70
39103;DHT22;24847;48.218;16.414;2024-03-07T11:45:03;6.20;72.90
39103;DHT22;24847;48.218;16.414;2024-03-07T11:50:07;6.10;73.30
39103;DHT22;24847;48.218;16.414;2024-03-07T11:55:12;6.20;71.80
39103;DHT22;24847;48.218;16.414;2024-03-07T12:00:17;6.40;72.30
39103;DHT22;24847;48.218;16.414;2024-03-07T12:05:20;6.40;72.10
39103;DHT22;24847;48.218;16.414;2024-03-07T12:10:22;6.20;72.40
39103;DHT22;24847;48.218;16.414;2024-03-07T12:15:26;6.20;72.40
39103;DHT22;24847;48.218;16.414;2024-03-07T12:20:29;6.20;72.60
39103;DHT22;24847;48.218;16.414;2024-03-07T12:25:34;6.30;72.30
39103;DHT22;24847;48.218;16.414;2024-03-07T12:30:48;6.10;72.80
39103;DHT22;24847;48.218;16.414;2024-03-07T12:35:53;6.00;73.60
39103;DHT22;24847;48.218;16.414;2024-03-07T12:41:02;6.00;73.30
39103;DHT22;24847;48.218;16.414;2024-03-07T12:46:10;6.20;72.80
39103;DHT22;24847;48.218;16.414;2024-03-07T12:51:14;6.20;72.60
39103;DHT22;24847;48.218;16.414;2024-03-07T12:56:17;6.40;71.70
39103;DHT22;24847;48.218;16.414;2024-03-07T13:01:21;6.40;71.20
39103;DHT22;24847;48.218;16.414;2024-03-07T13:06:23;6.40;72.10
39103;DHT22;24847;48.218;16.414;2024-03-07T13:11:30;6.40;71.00
39103;DHT22;24847;48.218;16.414;2024-03-07T13:16:35;6.30;70.80
39103;DHT22;24847;48.218;16.414;2024-03-07T13:21:37;6.50;70.40
39103;DHT22;24847;48.218;16.414;2024-03-07T13:26:40;6.30;69.60
39103;DHT22;24847;48.218;16.414;2024-03-07T13:31:44;6.50;69.50
39103;DHT22;24847;48.218;16.414;2024-03-07T13:36:47;6.30;69.50
39103;DHT22;24847;48.218;16.414;2024-03-07T13:41:49;6.30;70.20
39103;DHT22;24847;48.218;16.414;2024-03-07T13:46:53;6.50;69.70
39103;DHT22;24847;48.218;16.414;2024-03-07T13:51:55;6.70;68.80
39103;DHT22;24847;48.218;16.414;2024-03-07T13:57:21;6.60;69.00
39103;DHT22;24847;48.218;16.414;2024-03-07T14:02:58;6.40;69.10
39103;DHT22;24847;48.218;16.414;2024-03-07T14:14:18;6.60;69.60
39103;DHT22;24847;48.218;16.414;2024-03-07T14:19:59;6.50;70.30
39103;DHT22;24847;48.218;16.414;2024-03-07T14:25:46;6.60;69.70
39103;DHT22;24847;48.218;16.414;2024-03-07T14:30:53;6.50;69.60
39103;DHT22;24847;48.218;16.414;2024-03-07T14:36:02;6.50;70.00
39103;DHT22;24847;48.218;16.414;2024-03-07T14:41:07;6.50;70.00
39103;DHT22;24847;48.218;16.414;2024-03-07T14:46:15;6.60;69.40
39103;DHT22;24847;48.218;16.414;2024-03-07T14:51:19;6.60;68.60
39103;DHT22;24847;48.218;16.414;2024-03-07T14:56:22;6.40;68.60
39103;DHT22;24847;48.218;16.414;2024-03-07T15:01:24;6.30;68.60
39103;DHT22;24847;48.218;16.414;2024-03-07T15:06:29;6.40;67.80
39103;DHT22;24847;48.218;16.414;2024-03-07T15:11:35;6.40;68.30
39103;DHT22;24847;48.218;16.414;2024-03-07T15:16:39;6.50;68.50
39103;DHT22;24847;48.218;16.414;2024-03-07T15:21:42;6.30;69.20
39103;DHT22;24847;48.218;16.414;2024-03-07T15:26:44;6.40;69.20
39103;DHT22;24847;48.218;16.414;2024-03-07T15:31:48;6.40;69.30
39103;DHT22;24847;48.218;16.414;2024-03-07T15:37:00;6.40;69.30
39103;DHT22;24847;48.218;16.414;2024-03-07T15:42:03;6.50;70.10
39103;DHT22;24847;48.218;16.414;2024-03-07T15:47:06;6.50;70.30
39103;DHT22;24847;48.218;16.414;2024-03-07T15:52:10;6.60;69.40
39103;DHT22;24847;48.218;16.414;2024-03-07T15:57:13;6.50;69.60
39103;DHT22;24847;48.218;16.414;2024-03-07T16:02:15;6.50;69.70
39103;DHT22;24847;48.218;16.414;2024-03-07T16:07:20;6.40;70.30
39103;DHT22;24847;48.218;16.414;2024-03-07T16:12:23;6.10;71.20
39103;DHT22;24847;48.218;16.414;2024-03-07T16:17:25;6.30;71.00
39103;DHT22;24847;48.218;16.414;2024-03-07T16:22:28;6.20;70.90
39103;DHT22;24847;48.218;16.414;2024-03-07T16:27:30;6.20;70.60
39103;DHT22;24847;48.218;16.414;2024-03-07T16:32:33;6.20;70.30
39103;DHT22;24847;48.218;16.414;2024-03-07T16:37:39;6.30;70.90
39103;DHT22;24847;48.218;16.414;2024-03-07T16:42:44;6.10;71.10
39103;DHT22;24847;48.218;16.414;2024-03-07T16:47:52;5.80;72.40
39103;DHT22;24847;48.218;16.414;2024-03-07T16:52:58;6.00;72.10
39103;DHT22;24847;48.218;16.414;2024-03-07T16:58:03;5.80;72.20
39103;DHT22;24847;48.218;16.414;2024-03-07T17:03:06;5.60;73.00
39103;DHT22;24847;48.218;16.414;2024-03-07T17:08:09;5.60;73.50
39103;DHT22;24847;48.218;16.414;2024-03-07T17:13:14;5.60;74.10
39103;DHT22;24847;48.218;16.414;2024-03-07T17:18:17;5.60;73.80
39103;DHT22;24847;48.218;16.414;2024-03-07T17:23:22;5.40;74.70
39103;DHT22;24847;48.218;16.414;2024-03-07T17:28:25;5.60;74.30
39103;DHT22;24847;48.218;16.414;2024-03-07T17:33:29;5.60;73.00
39103;DHT22;24847;48.218;16.414;2024-03-07T17:38:33;5.60;73.40
39103;DHT22;24847;48.218;16.414;2024-03-07T17:43:37;5.80;73.00
39103;DHT22;24847;48.218;16.414;2024-03-07T17:48:40;5.80;72.60
39103;DHT22;24847;48.218;16.414;2024-03-07T17:53:43;5.80;73.10
39103;DHT22;24847;48.218;16.414;2024-03-07T17:58:50;5.70;73.20
39103;DHT22;24847;48.218;16.414;2024-03-07T18:03:52;5.50;73.50
39103;DHT22;24847;48.218;16.414;2024-03-07T18:08:56;5.40;74.10
39103;DHT22;24847;48.218;16.414;2024-03-07T18:13:59;5.20;74.30
39103;DHT22;24847;48.218;16.414;2024-03-07T18:19:01;5.10;74.40
39103;DHT22;24847;48.218;16.414;2024-03-07T18:24:05;5.20;74.10
39103;DHT22;24847;48.218;16.414;2024-03-07T18:29:08;5.20;74.40
39103;DHT22;24847;48.218;16.414;2024-03-07T18:34:10;5.40;73.40
39103;DHT22;24847;48.218;16.414;2024-03-07T18:39:15;5.30;74.00
39103;DHT22;24847;48.218;16.414;2024-03-07T18:44:24;5.20;74.40
39103;DHT22;24847;48.218;16.414;2024-03-07T18:49:26;5.30;73.70
39103;DHT22;24847;48.218;16.414;2024-03-07T18:54:33;5.30;73.60
39103;DHT22;24847;48.218;16.414;2024-03-07T18:59:35;5.40;73.70
39103;DHT22;24847;48.218;16.414;2024-03-07T19:04:38;5.00;74.30
39103;DHT22;24847;48.218;16.414;2024-03-07T19:09:43;5.30;74.10
39103;DHT22;24847;48.218;16.414;2024-03-07T19:14:47;5.00;74.40
39103;DHT22;24847;48.218;16.414;2024-03-07T19:19:49;4.90;75.00
39103;DHT22;24847;48.218;16.414;2024-03-07T19:24:53;4.90;75.80
39103;DHT22;24847;48.218;16.414;2024-03-07T19:29:55;4.90;75.50
39103;DHT22;24847;48.218;16.414;2024-03-07T19:34:57;4.90;75.40
39103;DHT22;24847;48.218;16.414;2024-03-07T19:40:01;4.60;76.50
39103;DHT22;24847;48.218;16.414;2024-03-07T19:45:03;5.00;76.30
39103;DHT22;24847;48.218;16.414;2024-03-07T19:50:07;4.80;76.30
39103;DHT22;24847;48.218;16.414;2024-03-07T19:55:13;4.60;77.00
39103;DHT22;24847;48.218;16.414;2024-03-07T20:00:19;4.80;75.90
39103;DHT22;24847;48.218;16.414;2024-03-07T20:05:21;4.80;75.90
39103;DHT22;24847;48.218;16.414;2024-03-07T20:10:28;4.50;77.60
39103;DHT22;24847;48.218;16.414;2024-03-07T20:15:30;4.50;77.30
39103;DHT22;24847;48.218;16.414;2024-03-07T20:20:33;4.50;77.10
39103;DHT22;24847;48.218;16.414;2024-03-07T20:25:38;4.30;77.20
39103;DHT22;24847;48.218;16.414;2024-03-07T20:30:42;4.60;76.70
39103;DHT22;24847;48.218;16.414;2024-03-07T20:35:47;4.50;76.50
39103;DHT22;24847;48.218;16.414;2024-03-07T20:40:53;4.70;76.50
39103;DHT22;24847;48.218;16.414;2024-03-07T20:45:56;4.60;76.20
39103;DHT22;24847;48.218;16.414;2024-03-07T20:50:58;4.50;76.00
39103;DHT22;24847;48.218;16.414;2024-03-07T20:56:02;4.30;76.90
39103;DHT22;24847;48.218;16.414;2024-03-07T21:01:04;4.60;76.00
39103;DHT22;24847;48.218;16.414;2024-03-07T21:06:09;4.60;75.90
39103;DHT22;24847;48.218;16.414;2024-03-07T21:11:13;4.40;76.70
39103;DHT22;24847;48.218;16.414;2024-03-07T21:16:16;4.30;77.20
39103;DHT22;24847;48.218;16.414;2024-03-07T21:21:18;4.40;76.70
39103;DHT22;24847;48.218;16.414;2024-03-07T21:26:21;4.60;76.00
39103;DHT22;24847;48.218;16.414;2024-03-07T21:31:24;4.50;76.80
39103;DHT22;24847;48.218;16.414;2024-03-07T21:36:27;4.10;78.50
39103;DHT22;24847;48.218;16.414;2024-03-07T21:41:34;4.10;78.60
39103;DHT22;24847;48.218;16.414;2024-03-07T21:46:40;4.20;78.70
39103;DHT22;24847;48.218;16.414;2024-03-07T21:51:46;4.10;79.10
39103;DHT22;24847;48.218;16.414;2024-03-07T21:56:53;4.20;78.90
39103;DHT22;24847;48.218;16.414;2024-03-07T22:01:55;4.00;79.30
39103;DHT22;24847;48.218;16.414;2024-03-07T22:06:57;4.20;78.10
39103;DHT22;24847;48.218;16.414;2024-03-07T22:12:00;4.00;79.30
39103;DHT22;24847;48.218;16.414;2024-03-07T22:17:03;3.90;79.10
39103;DHT22;24847;48.218;16.414;2024-03-07T22:22:06;3.90;79.50
39103;DHT22;24847;48.218;16.414;2024-03-07T22:27:10;3.90;79.80
39103;DHT22;24847;48.218;16.414;2024-03-07T22:32:13;3.90;79.30
39103;DHT22;24847;48.218;16.414;2024-03-07T22:37:16;3.90;80.40
39103;DHT22;24847;48.218;16.414;2024-03-07T22:42:20;3.90;80.00
39103;DHT22;24847;48.218;16.414;2024-03-07T22:47:24;4.00;79.70
39103;DHT22;24847;48.218;16.414;2024-03-07T22:52:26;3.90;80.00
39103;DHT22;24847;48.218;16.414;2024-03-07T22:57:30;4.00;78.60
39103;DHT22;24847;48.218;16.414;2024-03-07T23:15:08;3.90;79.80
39103;DHT22;24847;48.218;16.414;2024-03-07T23:20:11;3.70;80.80
39103;DHT22;24847;48.218;16.414;2024-03-07T23:25:20;3.90;79.80
39103;DHT22;24847;48.218;16.414;2024-03-07T23:30:23;4.00;79.00
39103;DHT22;24847;48.218;16.414;2024-03-07T23:35:26;4.00;80.00
39103;DHT22;24847;48.218;16.414;2024-03-07T23:40:28;3.90;80.60
39103;DHT22;24847;48.218;16.414;2024-03-07T23:45:32;4.30;79.00
39103;DHT22;24847;48.218;16.414;2024-03-07T23:50:34;4.00;80.10
39103;DHT22;24847;48.218;16.414;2024-03-07T23:55:36;3.90;81.10
